Time;durP1;ratioP1;P1;durP2;ratioP2;P2;SDS_P1;SDS_P2;PMS_P1;PMS_P2;Temp;Humidity;BMP_temperature;BMP_pressure;BME280_temperature;BME280_humidity;BME280_pressure;Samples;Min_cycle;Max_cycle;Signal;HPM_P1;HPM_P2
2021/01/15 00:01:35;;;;;;;13.68;8.93;;;3.00;97.60;;;;;;4984445;28;20584;-74
2021/01/15 00:04:02;;;;;;;14.55;8.45;;;3.00;97.50;;;;;;4989200;28;20225;-74
2021/01/15 00:06:29;;;;;;;14.63;9.23;;;3.00;97.50;;;;;;4973277;28;20704;-74
2021/01/15 00:08:56;;;;;;;16.48;8.98;;;3.00;97.40;;;;;;4973472;28;20259;-74
2021/01/15 00:11:24;;;;;;;14.90;8.40;;;2.90;97.30;;;;;;4974084;28;20221;-76
2021/01/15 00:13:51;;;;;;;16.20;9.02;;;2.90;97.30;;;;;;4955359;28;20302;-74
2021/01/15 00:16:22;;;;;;;15.57;8.48;;;2.90;97.30;;;;;;4978485;28;20197;-75
2021/01/15 00:18:49;;;;;;;15.63;9.10;;;2.90;97.30;;;;;;4973226;28;20217;-74
2021/01/15 00:21:20;;;;;;;15.27;8.93;;;2.80;97.30;;;;;;4956681;28;20210;-74
2021/01/15 00:23:47;;;;;;;17.42;10.02;;;2.80;97.40;;;;;;4955254;28;20257;-74
2021/01/15 00:26:17;;;;;;;17.80;10.25;;;2.80;97.40;;;;;;4978593;28;20208;-75
2021/01/15 00:28:44;;;;;;;17.10;9.18;;;2.80;97.50;;;;;;4954457;28;20202;-74
2021/01/15 00:31:10;;;;;;;12.88;9.00;;;2.80;97.50;;;;;;4973939;28;20229;-74
2021/01/15 00:33:40;;;;;;;17.30;9.90;;;2.80;97.50;;;;;;4973180;28;20194;-74
2021/01/15 00:36:07;;;;;;;13.73;8.77;;;2.80;97.50;;;;;;4972761;28;20202;-75
2021/01/15 00:38:34;;;;;;;15.50;9.68;;;2.90;97.50;;;;;;4992030;28;20201;-73
2021/01/15 00:41:02;;;;;;;16.08;9.77;;;3.00;97.50;;;;;;4973475;28;20217;-74
2021/01/15 00:43:29;;;;;;;16.08;9.40;;;3.00;97.30;;;;;;4966656;28;20239;-74
2021/01/15 00:45:55;;;;;;;20.10;9.98;;;3.00;97.20;;;;;;4973223;28;20205;-74
2021/01/15 00:48:22;;;;;;;15.85;8.75;;;3.00;97.00;;;;;;4973668;28;20281;-74
2021/01/15 00:50:49;;;;;;;16.60;9.40;;;3.00;96.90;;;;;;4955330;28;20292;-74
2021/01/15 00:53:16;;;;;;;15.50;9.48;;;3.00;96.90;;;;;;4955243;28;20193;-74
2021/01/15 00:55:43;;;;;;;16.05;9.52;;;3.00;96.90;;;;;;4968183;28;20206;-74
2021/01/15 00:58:13;;;;;;;14.60;9.35;;;3.00;96.80;;;;;;4972638;28;20237;-74
2021/01/15 01:00:40;;;;;;;15.70;9.45;;;3.00;96.70;;;;;;4955286;28;21884;-74
2021/01/15 01:03:15;;;;;;;17.40;9.60;;;3.10;96.70;;;;;;4954123;28;20684;-75
2021/01/15 01:05:42;;;;;;;16.73;9.98;;;3.10;96.60;;;;;;4972600;28;20252;-74
2021/01/15 01:08:08;;;;;;;15.40;9.57;;;3.10;96.40;;;;;;4970995;28;20575;-74
2021/01/15 01:10:34;;;;;;;15.65;9.70;;;3.20;96.40;;;;;;4972472;28;20229;-74
2021/01/15 01:13:01;;;;;;;17.20;9.05;;;3.20;96.20;;;;;;4971903;28;20209;-75
2021/01/15 01:15:28;;;;;;;14.88;9.38;;;3.30;96.20;;;;;;4954969;28;20264;-74
2021/01/15 01:17:54;;;;;;;15.05;9.45;;;3.30;96.10;;;;;;4973038;28;20194;-74
2021/01/15 01:20:21;;;;;;;16.02;9.98;;;3.30;96.00;;;;;;4972436;28;20228;-74
2021/01/15 01:22:49;;;;;;;15.57;9.38;;;3.30;96.00;;;;;;4972853;28;20550;-74
2021/01/15 01:25:16;;;;;;;15.02;9.68;;;3.30;95.90;;;;;;4954611;28;20683;-74
2021/01/15 01:27:43;;;;;;;15.43;9.50;;;3.30;95.90;;;;;;4972273;28;20242;-74
2021/01/15 01:30:10;;;;;;;15.55;9.35;;;3.30;95.80;;;;;;4953572;28;20746;-74
2021/01/15 01:32:38;;;;;;;15.40;8.90;;;3.30;95.80;;;;;;4973031;28;20201;-74
2021/01/15 01:35:06;;;;;;;13.73;8.95;;;3.30;95.70;;;;;;4954290;28;20301;-74
2021/01/15 01:37:32;;;;;;;13.73;8.80;;;3.30;95.70;;;;;;4955648;28;20297;-74
2021/01/15 01:39:59;;;;;;;13.55;8.93;;;3.30;95.60;;;;;;4971836;28;20198;-74
2021/01/15 01:42:25;;;;;;;14.60;8.07;;;3.30;95.60;;;;;;4972273;28;20597;-74
2021/01/15 01:44:51;;;;;;;13.57;8.50;;;3.30;95.50;;;;;;4971604;28;20210;-74
2021/01/15 01:47:18;;;;;;;13.60;7.43;;;3.40;95.40;;;;;;4972415;28;20244;-74
2021/01/15 01:49:47;;;;;;;11.90;6.68;;;3.30;95.30;;;;;;4971059;28;20220;-74
2021/01/15 01:52:14;;;;;;;11.60;6.18;;;3.30;95.30;;;;;;4966004;28;20661;-74
2021/01/15 01:54:41;;;;;;;8.70;5.93;;;3.40;95.20;;;;;;4971051;28;20206;-74
2021/01/15 01:57:08;;;;;;;8.75;5.93;;;3.40;95.10;;;;;;4970911;28;20233;-73
2021/01/15 01:59:36;;;;;;;11.63;6.40;;;3.30;94.90;;;;;;4971413;28;20202;-74
2021/01/15 02:02:03;;;;;;;11.50;7.05;;;3.30;94.90;;;;;;4970335;28;20229;-75
2021/01/15 02:04:29;;;;;;;12.77;8.07;;;3.40;94.90;;;;;;4970350;28;20202;-74
2021/01/15 02:06:58;;;;;;;13.68;7.78;;;3.40;94.80;;;;;;4954856;28;20209;-74
2021/01/15 02:09:30;;;;;;;10.95;7.65;;;3.40;94.70;;;;;;4971399;28;20213;-74
2021/01/15 02:12:06;;;;;;;12.75;7.53;;;3.40;94.60;;;;;;4972134;28;20249;-73
2021/01/15 02:14:43;;;;;;;11.95;7.57;;;3.40;94.60;;;;;;4971016;28;20729;-74
2021/01/15 02:17:16;;;;;;;11.75;7.20;;;3.50;94.60;;;;;;4986754;28;20197;-74
2021/01/15 02:20:02;;;;;;;11.98;7.22;;;3.50;94.50;;;;;;4981094;28;20268;-74
2021/01/15 02:22:41;;;;;;;13.77;7.03;;;3.50;94.50;;;;;;4970502;28;20725;-74
2021/01/15 02:25:52;;;;;;;11.18;6.88;;;3.50;94.50;;;;;;4970973;28;20662;-74
2021/01/15 02:28:44;;;;;;;11.38;7.25;;;3.50;94.40;;;;;;4965201;28;20723;-74
2021/01/15 02:31:44;;;;;;;12.63;7.75;;;3.50;94.40;;;;;;4971190;28;20680;-74
2021/01/15 02:34:24;;;;;;;11.88;7.47;;;3.50;94.40;;;;;;4925564;28;20230;-74
2021/01/15 02:37:00;;;;;;;11.85;6.72;;;3.40;94.30;;;;;;4971387;28;20206;-74
2021/01/15 02:39:37;;;;;;;10.75;6.90;;;3.40;94.40;;;;;;4970525;28;20206;-75
2021/01/15 02:42:06;;;;;;;10.15;6.75;;;3.40;94.40;;;;;;4971440;28;20215;-74
2021/01/15 02:44:35;;;;;;;10.23;6.68;;;3.50;94.40;;;;;;4970774;28;20210;-74
2021/01/15 02:47:01;;;;;;;11.52;7.15;;;3.50;94.40;;;;;;4953980;28;20225;-74
2021/01/15 02:49:29;;;;;;;12.05;7.15;;;3.50;94.30;;;;;;4969386;28;20210;-73
2021/01/15 02:51:56;;;;;;;9.82;7.03;;;3.50;94.30;;;;;;4971331;28;20730;-74
2021/01/15 02:54:23;;;;;;;12.70;7.47;;;3.50;94.30;;;;;;4969459;28;20260;-74
2021/01/15 02:56:49;;;;;;;13.05;7.75;;;3.50;94.30;;;;;;4970600;28;20709;-74
2021/01/15 02:59:16;;;;;;;11.80;6.70;;;3.50;94.30;;;;;;4969880;28;20202;-76
2021/01/15 03:01:54;;;;;;;13.15;7.25;;;3.50;94.30;;;;;;4968828;28;20224;-75
2021/01/15 03:04:30;;;;;;;13.07;7.00;;;3.50;94.30;;;;;;4968927;28;20216;-74
2021/01/15 03:07:01;;;;;;;10.55;7.25;;;3.50;94.20;;;;;;4969763;28;20575;-75
2021/01/15 03:09:32;;;;;;;9.30;6.72;;;3.50;94.20;;;;;;4969783;28;20214;-74
2021/01/15 03:12:01;;;;;;;13.65;7.63;;;3.50;94.20;;;;;;4970485;28;20812;-74
2021/01/15 03:14:28;;;;;;;12.38;7.10;;;3.50;94.20;;;;;;4969444;28;20237;-74
2021/01/15 03:16:56;;;;;;;11.50;7.20;;;3.50;94.20;;;;;;4970411;28;20559;-74
2021/01/15 03:19:22;;;;;;;11.27;7.10;;;3.50;94.20;;;;;;4969380;28;20260;-74
2021/01/15 03:21:50;;;;;;;12.32;7.07;;;3.50;94.20;;;;;;4970390;28;20213;-74
2021/01/15 03:24:18;;;;;;;12.93;7.00;;;3.50;94.10;;;;;;4969495;28;20244;-74
2021/01/15 03:26:45;;;;;;;11.30;7.13;;;3.50;94.10;;;;;;4970512;28;20198;-75
2021/01/15 03:29:13;;;;;;;11.68;6.88;;;3.50;94.00;;;;;;4969409;28;20209;-74
2021/01/15 03:31:41;;;;;;;11.05;7.15;;;3.50;94.00;;;;;;4952790;28;20206;-74
2021/01/15 03:34:08;;;;;;;10.68;6.82;;;3.50;94.00;;;;;;4979253;28;20206;-75
2021/01/15 03:36:35;;;;;;;13.13;7.40;;;3.50;94.00;;;;;;4951674;28;20213;-75
2021/01/15 03:39:02;;;;;;;11.40;7.35;;;3.60;94.00;;;;;;4969504;28;20205;-75
2021/01/15 03:41:29;;;;;;;12.25;7.03;;;3.60;94.00;;;;;;4952512;28;20788;-76
2021/01/15 03:43:55;;;;;;;11.32;6.85;;;3.60;94.00;;;;;;4969591;28;20202;-75
2021/01/15 03:46:22;;;;;;;9.40;6.72;;;3.60;93.90;;;;;;4969995;28;20213;-75
2021/01/15 03:48:48;;;;;;;10.73;6.65;;;3.60;93.90;;;;;;4951917;28;20202;-75
2021/01/15 03:51:14;;;;;;;14.13;6.97;;;3.60;93.90;;;;;;4953070;28;20241;-74
2021/01/15 03:53:44;;;;;;;11.60;7.00;;;3.60;93.80;;;;;;4968031;28;20213;-75
2021/01/15 03:56:10;;;;;;;16.75;7.70;;;3.60;93.80;;;;;;4967318;28;20206;-75
2021/01/15 03:58:38;;;;;;;13.15;7.63;;;3.60;93.80;;;;;;4969494;28;20210;-74
2021/01/15 04:01:04;;;;;;;12.82;7.68;;;3.60;93.80;;;;;;4969966;28;20236;-75
2021/01/15 04:03:30;;;;;;;14.05;7.93;;;3.60;93.70;;;;;;4969074;28;20229;-74
2021/01/15 04:05:57;;;;;;;14.20;7.75;;;3.70;93.70;;;;;;4967210;28;20221;-75
2021/01/15 04:08:23;;;;;;;12.10;7.60;;;3.60;93.60;;;;;;4968472;28;21540;-75
2021/01/15 04:10:49;;;;;;;13.68;7.95;;;3.60;93.60;;;;;;4969226;28;20685;-75
2021/01/15 04:13:16;;;;;;;11.18;7.30;;;3.70;93.60;;;;;;4970025;28;20205;-74
2021/01/15 04:15:43;;;;;;;12.20;6.97;;;3.60;93.50;;;;;;4969122;28;20210;-75
2021/01/15 04:18:10;;;;;;;13.20;7.28;;;3.60;93.60;;;;;;4970626;28;20205;-74
2021/01/15 04:20:36;;;;;;;9.93;6.10;;;3.60;93.60;;;;;;4972842;28;20554;-75
2021/01/15 04:23:02;;;;;;;10.68;6.70;;;3.60;93.60;;;;;;4973158;28;20217;-76
2021/01/15 04:25:29;;;;;;;11.05;6.25;;;3.60;93.60;;;;;;4972748;28;20209;-75
2021/01/15 04:27:55;;;;;;;12.40;6.80;;;3.50;93.60;;;;;;4973514;28;20245;-74
2021/01/15 04:30:22;;;;;;;12.27;7.07;;;3.50;93.60;;;;;;4975271;28;20205;-75
2021/01/15 04:32:50;;;;;;;10.18;6.70;;;3.50;93.90;;;;;;4990811;28;20965;-74
2021/01/15 04:35:18;;;;;;;10.70;6.38;;;3.50;93.60;;;;;;4977878;28;20431;-75
2021/01/15 04:37:47;;;;;;;12.57;7.20;;;3.50;93.50;;;;;;4977341;28;20208;-75
2021/01/15 04:40:14;;;;;;;11.45;7.30;;;3.50;93.50;;;;;;4971368;28;20206;-75
2021/01/15 04:42:42;;;;;;;12.30;6.93;;;3.50;93.50;;;;;;4971383;28;20253;-75
2021/01/15 04:45:11;;;;;;;12.18;7.72;;;3.50;93.80;;;;;;4982857;28;20583;-75
2021/01/15 04:47:42;;;;;;;10.98;7.72;;;3.50;93.40;;;;;;4973726;28;20210;-75
2021/01/15 04:50:13;;;;;;;13.23;8.25;;;3.50;93.30;;;;;;4970926;28;20213;-75
2021/01/15 04:52:47;;;;;;;13.00;7.97;;;3.60;93.40;;;;;;4954212;28;20220;-74
2021/01/15 04:55:18;;;;;;;13.00;8.23;;;3.60;93.40;;;;;;4983426;28;20201;-76
2021/01/15 04:57:48;;;;;;;17.13;8.20;;;3.60;93.40;;;;;;4992226;28;20328;-75
2021/01/15 05:00:18;;;;;;;12.75;8.02;;;3.60;93.30;;;;;;4977748;28;20209;-75
2021/01/15 05:02:47;;;;;;;15.35;8.27;;;3.60;93.30;;;;;;4972411;28;20221;-76
2021/01/15 05:05:20;;;;;;;14.05;8.02;;;3.70;93.30;;;;;;4971938;28;20265;-75
2021/01/15 05:08:08;;;;;;;15.85;8.75;;;3.70;93.30;;;;;;4986027;28;20209;-75
2021/01/15 05:10:39;;;;;;;11.93;7.70;;;3.70;93.30;;;;;;4975015;28;20249;-74
2021/01/15 05:13:08;;;;;;;12.98;9.00;;;3.70;93.30;;;;;;4972523;28;20239;-76
2021/01/15 05:15:37;;;;;;;14.80;8.38;;;3.70;93.20;;;;;;4970668;28;20210;-75
2021/01/15 05:18:05;;;;;;;13.55;8.50;;;3.70;93.20;;;;;;4991929;28;20193;-74
2021/01/15 05:20:33;;;;;;;18.15;8.85;;;3.70;93.20;;;;;;4970702;28;20209;-74
2021/01/15 05:23:03;;;;;;;12.88;8.25;;;3.70;93.20;;;;;;4972165;28;20229;-75
2021/01/15 05:25:30;;;;;;;13.05;8.40;;;3.70;93.20;;;;;;4971591;28;20205;-74
2021/01/15 05:27:57;;;;;;;14.55;8.55;;;3.70;93.20;;;;;;4972149;28;20210;-75
2021/01/15 05:30:25;;;;;;;13.73;8.88;;;3.70;93.20;;;;;;4970692;28;20212;-74
2021/01/15 05:32:53;;;;;;;13.70;8.23;;;3.70;93.20;;;;;;4972219;28;20281;-74
2021/01/15 05:35:20;;;;;;;12.10;7.80;;;3.70;93.30;;;;;;4972214;28;20209;-76
2021/01/15 05:37:59;;;;;;;12.90;7.80;;;3.70;93.30;;;;;;4974057;28;20205;-74
2021/01/15 05:40:39;;;;;;;14.55;8.32;;;3.70;93.30;;;;;;4974564;28;20663;-73
2021/01/15 05:43:06;;;;;;;18.65;8.38;;;3.70;93.30;;;;;;4971549;28;20284;-74
2021/01/15 05:45:33;;;;;;;14.55;8.63;;;3.70;93.30;;;;;;4967755;28;20224;-73
2021/01/15 05:47:59;;;;;;;12.35;8.20;;;3.70;93.30;;;;;;4968200;28;20256;-75
2021/01/15 05:50:39;;;;;;;12.88;7.95;;;3.70;93.30;;;;;;4970445;28;20202;-75
2021/01/15 05:53:07;;;;;;;13.50;8.30;;;3.70;93.30;;;;;;4970181;28;20205;-74
2021/01/15 05:55:33;;;;;;;14.18;8.98;;;3.70;93.40;;;;;;4974155;28;20201;-74
2021/01/15 05:58:10;;;;;;;15.40;8.55;;;3.70;93.40;;;;;;4975344;28;20244;-73
2021/01/15 06:00:38;;;;;;;16.48;8.48;;;3.70;93.40;;;;;;4969157;28;20269;-74
2021/01/15 06:03:09;;;;;;;16.08;9.00;;;3.70;93.50;;;;;;4966541;28;20217;-74
2021/01/15 06:05:36;;;;;;;15.68;9.52;;;3.70;93.50;;;;;;4971037;28;20202;-74
2021/01/15 06:08:04;;;;;;;18.67;9.20;;;3.70;93.50;;;;;;4976505;28;20194;-76
2021/01/15 06:10:43;;;;;;;16.38;9.30;;;3.70;93.60;;;;;;4973904;28;20205;-76
2021/01/15 06:13:10;;;;;;;14.10;9.13;;;3.70;93.60;;;;;;4981346;28;20197;-76
2021/01/15 06:15:46;;;;;;;13.70;8.20;;;3.80;93.70;;;;;;4974774;28;20209;-74
2021/01/15 06:18:18;;;;;;;13.98;8.48;;;3.80;93.70;;;;;;4976753;28;20556;-75
2021/01/15 06:20:46;;;;;;;16.45;9.23;;;3.80;93.70;;;;;;4978142;28;20213;-74
2021/01/15 06:23:14;;;;;;;14.25;9.45;;;3.80;93.70;;;;;;4980799;28;20249;-75
2021/01/15 06:25:59;;;;;;;17.35;9.45;;;3.80;93.70;;;;;;4973031;28;20309;-76
2021/01/15 06:28:33;;;;;;;16.30;8.55;;;3.80;93.70;;;;;;4980765;28;20202;-75
2021/01/15 06:31:02;;;;;;;14.80;8.85;;;3.80;93.70;;;;;;4973708;28;20812;-75
2021/01/15 06:33:28;;;;;;;14.82;9.38;;;3.80;93.70;;;;;;4962435;28;20253;-75
2021/01/15 06:35:55;;;;;;;15.10;9.18;;;3.80;93.80;;;;;;4959040;28;20213;-74
2021/01/15 06:38:28;;;;;;;15.95;9.05;;;3.80;93.80;;;;;;4981406;28;20241;-75
2021/01/15 06:40:55;;;;;;;14.60;8.90;;;3.80;93.90;;;;;;4976479;28;20205;-75
2021/01/15 06:43:25;;;;;;;15.18;8.80;;;3.80;93.90;;;;;;4957758;28;20603;-76
2021/01/15 06:45:53;;;;;;;16.98;9.25;;;3.80;93.80;;;;;;4966803;28;20316;-76
2021/01/15 06:48:21;;;;;;;15.23;8.75;;;3.80;93.80;;;;;;4972051;28;20214;-74
2021/01/15 06:50:50;;;;;;;13.98;8.75;;;3.80;93.80;;;;;;4969914;28;20210;-74
2021/01/15 06:53:26;;;;;;;13.93;8.77;;;3.80;93.70;;;;;;4973343;28;20198;-73
2021/01/15 06:55:53;;;;;;;15.70;8.77;;;3.80;93.70;;;;;;4971918;28;20293;-74
2021/01/15 06:58:39;;;;;;;15.98;8.43;;;3.80;93.70;;;;;;4982411;28;20236;-76
2021/01/15 07:01:17;;;;;;;15.75;8.65;;;3.80;93.70;;;;;;4971275;28;20208;-75
2021/01/15 07:04:20;;;;;;;15.05;9.05;;;3.80;93.80;;;;;;4953561;28;20228;-76
2021/01/15 07:07:10;;;;;;;14.18;8.75;;;3.80;93.80;;;;;;4971055;28;20205;-75
2021/01/15 07:09:37;;;;;;;15.27;9.13;;;3.80;93.80;;;;;;4968828;28;20662;-76
2021/01/15 07:12:08;;;;;;;15.00;9.02;;;3.80;93.80;;;;;;4975481;28;20295;-76
2021/01/15 07:14:44;;;;;;;18.63;10.00;;;3.80;93.90;;;;;;4975281;28;20287;-75
2021/01/15 07:17:18;;;;;;;21.73;9.70;;;3.80;93.90;;;;;;4970624;28;20665;-75
2021/01/15 07:19:45;;;;;;;16.08;9.38;;;3.90;93.90;;;;;;4972247;28;20244;-75
2021/01/15 07:22:13;;;;;;;19.55;10.07;;;3.90;93.90;;;;;;4960532;28;20216;-75
2021/01/15 07:24:41;;;;;;;16.02;8.95;;;3.90;93.90;;;;;;4954444;28;20220;-75
2021/01/15 07:27:09;;;;;;;18.80;9.13;;;3.90;93.90;;;;;;4951312;28;20210;-75
2021/01/15 07:29:43;;;;;;;20.95;10.70;;;3.90;93.90;;;;;;4969662;28;20197;-75
2021/01/15 07:32:19;;;;;;;14.55;9.25;;;3.90;94.00;;;;;;4970633;28;20206;-74
2021/01/15 07:34:48;;;;;;;15.13;9.43;;;3.90;93.90;;;;;;4975481;28;20220;-75
2021/01/15 07:37:19;;;;;;;14.65;9.60;;;3.90;93.90;;;;;;4953163;28;20204;-75
2021/01/15 07:40:04;;;;;;;15.00;9.32;;;3.90;93.90;;;;;;4969319;28;20213;-76
2021/01/15 07:42:44;;;;;;;16.70;10.10;;;3.90;93.90;;;;;;4970107;28;20213;-73
2021/01/15 07:45:50;;;;;;;15.60;9.35;;;3.90;93.90;;;;;;4969529;28;20628;-74
2021/01/15 07:48:17;;;;;;;17.90;9.30;;;3.90;93.90;;;;;;4965969;28;20210;-75
2021/01/15 07:50:45;;;;;;;19.45;10.38;;;3.90;93.90;;;;;;4968701;28;20206;-75
2021/01/15 07:53:16;;;;;;;18.98;10.70;;;3.90;93.90;;;;;;4969316;28;20210;-73
2021/01/15 07:55:47;;;;;;;27.38;12.52;;;3.90;93.90;;;;;;4970653;28;20297;-76
2021/01/15 07:58:16;;;;;;;17.30;10.25;;;4.00;94.00;;;;;;4973181;28;20225;-76
2021/01/15 08:00:44;;;;;;;21.55;9.70;;;4.00;94.00;;;;;;4977997;28;20209;-74
2021/01/15 08:03:12;;;;;;;19.38;10.50;;;4.00;94.00;;;;;;4974038;28;20217;-74
2021/01/15 08:05:39;;;;;;;18.48;10.18;;;4.00;94.00;;;;;;4973260;28;20260;-73
2021/01/15 08:08:14;;;;;;;17.77;9.70;;;4.00;94.00;;;;;;4973920;28;20206;-75
2021/01/15 08:10:46;;;;;;;16.35;10.32;;;4.00;94.00;;;;;;4975812;28;20213;-74
2021/01/15 08:13:21;;;;;;;19.70;9.98;;;4.00;94.10;;;;;;4961309;28;20201;-75
2021/01/15 08:15:48;;;;;;;18.40;9.98;;;4.00;94.10;;;;;;4968611;28;20669;-75
2021/01/15 08:18:14;;;;;;;19.90;10.50;;;4.00;94.20;;;;;;4974104;28;20212;-75
2021/01/15 08:20:49;;;;;;;16.60;10.65;;;4.00;94.20;;;;;;4972439;28;20221;-74
2021/01/15 08:23:26;;;;;;;18.10;10.80;;;4.00;94.20;;;;;;4973496;28;20213;-74
2021/01/15 08:26:25;;;;;;;18.83;10.50;;;4.00;94.20;;;;;;4973832;28;20223;-74
2021/01/15 08:28:52;;;;;;;16.80;9.77;;;4.00;94.20;;;;;;4989347;28;20685;-74
2021/01/15 08:31:22;;;;;;;21.02;9.85;;;4.10;94.20;;;;;;4977785;28;20193;-74
2021/01/15 08:34:01;;;;;;;18.50;10.18;;;4.10;94.10;;;;;;4972193;28;20272;-76
2021/01/15 08:36:29;;;;;;;17.85;10.38;;;4.10;94.10;;;;;;4976632;28;20276;-75
2021/01/15 08:38:57;;;;;;;18.48;10.32;;;4.10;94.10;;;;;;4975139;28;20753;-74
2021/01/15 08:41:27;;;;;;;18.92;10.00;;;4.10;94.10;;;;;;4980791;28;20692;-75
2021/01/15 08:43:55;;;;;;;17.65;10.30;;;4.10;94.10;;;;;;4988443;28;20591;-75
2021/01/15 08:46:23;;;;;;;17.85;9.98;;;4.10;94.10;;;;;;4977144;28;20197;-73
2021/01/15 08:48:50;;;;;;;17.60;10.40;;;4.10;94.20;;;;;;4973046;28;20225;-74
2021/01/15 08:51:19;;;;;;;15.77;9.02;;;4.10;94.10;;;;;;4973916;28;20206;-74
2021/01/15 08:54:06;;;;;;;16.85;9.40;;;4.10;94.10;;;;;;4956861;28;20206;-75
2021/01/15 08:56:39;;;;;;;17.58;9.98;;;4.10;94.00;;;;;;4983491;28;20201;-75
2021/01/15 08:59:07;;;;;;;20.75;10.13;;;4.20;94.00;;;;;;4985720;28;20204;-74
2021/01/15 09:01:35;;;;;;;19.77;11.55;;;4.20;94.00;;;;;;4974900;28;20209;-75
2021/01/15 09:04:04;;;;;;;23.02;9.70;;;4.20;94.00;;;;;;4970829;28;20240;-75
2021/01/15 09:06:31;;;;;;;18.13;10.00;;;4.20;94.00;;;;;;4969905;28;20208;-75
2021/01/15 09:09:01;;;;;;;18.52;10.98;;;4.20;94.00;;;;;;4958248;28;20221;-77
2021/01/15 09:11:29;;;;;;;17.85;10.10;;;4.30;93.90;;;;;;4971578;28;20238;-74
2021/01/15 09:13:56;;;;;;;18.75;10.80;;;4.30;93.90;;;;;;4969734;28;20284;-74
2021/01/15 09:16:24;;;;;;;18.30;11.10;;;4.30;93.90;;;;;;4953096;28;20206;-74
2021/01/15 09:18:52;;;;;;;18.63;10.55;;;4.30;93.80;;;;;;4972247;28;20252;-74
2021/01/15 09:21:18;;;;;;;17.13;10.05;;;4.30;93.80;;;;;;4989194;28;20210;-74
2021/01/15 09:23:44;;;;;;;16.63;9.73;;;4.30;93.70;;;;;;4972423;28;20228;-74
2021/01/15 09:26:12;;;;;;;18.15;11.00;;;4.30;93.70;;;;;;4953901;28;20206;-74
2021/01/15 09:28:38;;;;;;;19.17;10.02;;;4.30;93.70;;;;;;4979699;28;20236;-75
2021/01/15 09:31:05;;;;;;;20.85;10.95;;;4.30;93.60;;;;;;4955891;28;20216;-75
2021/01/15 09:33:31;;;;;;;18.30;10.57;;;4.40;93.60;;;;;;4972670;28;20546;-75
2021/01/15 09:35:58;;;;;;;15.70;10.18;;;4.40;93.50;;;;;;4971396;28;20238;-74
2021/01/15 09:38:24;;;;;;;18.73;10.45;;;4.40;93.50;;;;;;4973050;28;20226;-74
2021/01/15 09:40:50;;;;;;;21.60;10.30;;;4.40;93.40;;;;;;4972002;28;20205;-75
2021/01/15 09:43:20;;;;;;;16.35;10.73;;;4.40;93.40;;;;;;4972990;28;20222;-75
2021/01/15 09:45:47;;;;;;;16.27;10.40;;;4.40;93.30;;;;;;4971867;28;20680;-74
2021/01/15 09:48:14;;;;;;;22.83;10.75;;;4.40;93.30;;;;;;4988756;28;20232;-74
2021/01/15 09:50:40;;;;;;;22.55;11.38;;;4.40;93.30;;;;;;4972004;28;20217;-74
2021/01/15 09:53:07;;;;;;;22.58;12.90;;;4.40;93.40;;;;;;4972229;28;20217;-74
2021/01/15 09:55:33;;;;;;;16.75;10.77;;;4.40;93.40;;;;;;4972055;28;20282;-74
2021/01/15 09:57:59;;;;;;;16.45;10.55;;;4.50;93.50;;;;;;4972349;28;20248;-75
2021/01/15 10:00:27;;;;;;;19.88;10.75;;;4.40;93.50;;;;;;4971758;28;20225;-74
2021/01/15 10:02:53;;;;;;;19.58;10.95;;;4.50;93.60;;;;;;4970845;28;20673;-74
2021/01/15 10:05:21;;;;;;;18.10;10.45;;;4.50;93.60;;;;;;4971874;28;20194;-74
2021/01/15 10:07:47;;;;;;;21.75;11.20;;;4.50;93.60;;;;;;4972273;28;20225;-75
2021/01/15 10:10:14;;;;;;;18.80;10.68;;;4.50;93.70;;;;;;4971384;28;20568;-74
2021/01/15 10:12:44;;;;;;;19.63;10.35;;;4.50;93.70;;;;;;4972419;28;20198;-73
2021/01/15 10:15:13;;;;;;;16.25;9.90;;;4.60;93.80;;;;;;4971010;28;20666;-75
2021/01/15 10:17:46;;;;;;;19.23;9.80;;;4.60;93.80;;;;;;4985966;28;20244;-72
2021/01/15 10:20:13;;;;;;;23.98;9.82;;;4.60;93.70;;;;;;4971277;28;20210;-74
2021/01/15 10:22:40;;;;;;;17.63;9.38;;;4.60;93.70;;;;;;4972324;28;20206;-73
2021/01/15 10:25:07;;;;;;;17.65;9.32;;;4.60;93.60;;;;;;4971123;28;20264;-75
2021/01/15 10:27:35;;;;;;;20.23;9.25;;;4.60;93.50;;;;;;4974428;28;20652;-74
2021/01/15 10:30:01;;;;;;;20.48;10.32;;;4.60;93.50;;;;;;4973215;28;20213;-75
2021/01/15 10:32:28;;;;;;;21.38;10.40;;;4.60;93.50;;;;;;4971268;28;20213;-74
2021/01/15 10:34:55;;;;;;;17.33;9.23;;;4.70;93.50;;;;;;4969625;28;20210;-73
2021/01/15 10:37:21;;;;;;;17.35;9.32;;;4.70;93.50;;;;;;4963519;28;20205;-72
2021/01/15 10:39:47;;;;;;;18.80;10.52;;;4.70;93.50;;;;;;4970323;28;20659;-75
2021/01/15 10:42:14;;;;;;;21.58;10.30;;;4.70;93.40;;;;;;4971831;28;20202;-72
2021/01/15 10:44:40;;;;;;;17.60;9.98;;;4.70;93.30;;;;;;4974617;28;20210;-73
2021/01/15 10:47:06;;;;;;;19.33;9.80;;;4.70;93.20;;;;;;4971795;28;20202;-73
2021/01/15 10:49:33;;;;;;;19.30;9.88;;;4.80;93.20;;;;;;4953235;28;20671;-75
2021/01/15 10:52:00;;;;;;;16.83;9.27;;;4.80;93.20;;;;;;4970481;28;20613;-75
2021/01/15 10:54:26;;;;;;;16.15;9.25;;;4.80;93.10;;;;;;4969533;28;20597;-74
2021/01/15 10:56:53;;;;;;;17.63;9.57;;;4.80;93.10;;;;;;4971545;28;20717;-73
2021/01/15 10:59:20;;;;;;;16.45;9.90;;;4.70;93.00;;;;;;4970242;28;20658;-73
2021/01/15 11:01:48;;;;;;;19.30;10.00;;;4.80;93.00;;;;;;4970060;28;20229;-76
2021/01/15 11:04:16;;;;;;;18.33;10.45;;;4.80;93.00;;;;;;4961276;28;20328;-75
2021/01/15 11:06:44;;;;;;;19.45;10.23;;;4.80;93.00;;;;;;4972420;28;20683;-76
2021/01/15 11:09:15;;;;;;;24.52;11.35;;;4.80;93.00;;;;;;4982143;28;20202;-77
2021/01/15 11:11:46;;;;;;;20.13;10.32;;;4.80;92.90;;;;;;4965756;28;20205;-75
2021/01/15 11:14:13;;;;;;;17.95;10.80;;;4.80;92.80;;;;;;4984876;28;20206;-75
2021/01/15 11:16:39;;;;;;;21.63;10.18;;;4.80;92.80;;;;;;4971187;28;20213;-76
2021/01/15 11:19:05;;;;;;;18.08;10.38;;;4.80;93.10;;;;;;4970602;28;20208;-75
2021/01/15 11:21:32;;;;;;;17.98;10.32;;;4.80;92.70;;;;;;4971062;28;20193;-74
2021/01/15 11:23:58;;;;;;;15.27;9.52;;;4.80;92.80;;;;;;4970496;28;20276;-75
2021/01/15 11:26:26;;;;;;;20.10;9.02;;;4.80;92.80;;;;;;4970306;28;20210;-74
2021/01/15 11:28:54;;;;;;;16.25;8.73;;;4.80;92.80;;;;;;4969357;28;20495;-75
2021/01/15 11:31:20;;;;;;;13.90;8.63;;;4.80;92.80;;;;;;4965720;28;20210;-75
2021/01/15 11:33:47;;;;;;;15.25;9.10;;;4.80;92.80;;;;;;4982843;28;20272;-75
2021/01/15 11:36:14;;;;;;;16.02;9.55;;;4.80;92.80;;;;;;4984282;28;20572;-74
2021/01/15 11:38:40;;;;;;;15.90;9.30;;;4.80;93.20;;;;;;4972839;28;20221;-76
2021/01/15 11:41:07;;;;;;;18.05;9.23;;;4.90;92.90;;;;;;4953259;28;20202;-75
2021/01/15 11:43:35;;;;;;;15.90;9.52;;;4.90;92.90;;;;;;4953501;28;20218;-75
2021/01/15 11:46:01;;;;;;;18.80;8.98;;;4.90;92.90;;;;;;4953169;28;20568;-75
2021/01/15 11:48:28;;;;;;;16.48;8.57;;;4.90;92.90;;;;;;4971131;28;20202;-75
2021/01/15 11:50:55;;;;;;;15.05;8.35;;;4.90;92.90;;;;;;4963889;28;20233;-75
2021/01/15 11:53:22;;;;;;;14.88;7.68;;;4.90;92.90;;;;;;4971979;28;20221;-75
2021/01/15 11:55:49;;;;;;;16.48;8.10;;;4.90;92.80;;;;;;4970385;28;20218;-75
2021/01/15 11:58:16;;;;;;;17.95;8.23;;;5.00;92.80;;;;;;4970819;28;20332;-74
2021/01/15 12:00:43;;;;;;;13.90;8.30;;;4.90;92.70;;;;;;4970123;28;20213;-75
2021/01/15 12:03:13;;;;;;;15.65;8.23;;;5.00;92.70;;;;;;4969875;28;20745;-74
2021/01/15 12:05:43;;;;;;;12.35;8.35;;;5.00;92.80;;;;;;4966423;28;20209;-75
2021/01/15 12:08:09;;;;;;;17.50;8.50;;;5.00;92.80;;;;;;4972306;28;20639;-75
2021/01/15 12:10:36;;;;;;;16.35;8.50;;;5.00;92.80;;;;;;4978509;28;20208;-74
2021/01/15 12:13:02;;;;;;;18.00;8.93;;;5.00;92.80;;;;;;4989733;28;20190;-75
2021/01/15 12:15:29;;;;;;;14.55;9.30;;;5.10;92.80;;;;;;4974109;28;20289;-74
2021/01/15 12:17:56;;;;;;;13.07;8.00;;;5.10;92.90;;;;;;4970732;28;20209;-74
2021/01/15 12:20:22;;;;;;;13.90;8.52;;;5.10;92.90;;;;;;4968826;28;20206;-74
2021/01/15 12:22:49;;;;;;;18.85;8.82;;;5.10;92.90;;;;;;4970211;28;20539;-74
2021/01/15 12:25:15;;;;;;;18.35;9.45;;;5.10;92.90;;;;;;4977860;28;20216;-74
2021/01/15 12:27:41;;;;;;;18.88;9.48;;;5.10;92.90;;;;;;4970525;28;21196;-74
2021/01/15 12:30:10;;;;;;;21.88;9.40;;;5.20;92.90;;;;;;4952673;28;20210;-75
2021/01/15 12:32:37;;;;;;;20.80;9.10;;;5.20;92.90;;;;;;4968199;28;20206;-74
2021/01/15 12:35:05;;;;;;;15.13;7.50;;;5.20;92.80;;;;;;4969840;28;20206;-74
2021/01/15 12:37:32;;;;;;;13.10;8.20;;;5.20;92.90;;;;;;4986276;28;20566;-74
2021/01/15 12:39:58;;;;;;;14.88;8.32;;;5.20;92.90;;;;;;4980262;28;20198;-74
2021/01/15 12:42:24;;;;;;;11.48;5.90;;;5.20;92.90;;;;;;4973819;28;20198;-74
2021/01/15 12:44:51;;;;;;;8.73;5.32;;;5.30;92.90;;;;;;4973251;28;20594;-74
2021/01/15 12:47:17;;;;;;;8.95;5.03;;;5.20;92.80;;;;;;4973960;28;20604;-78
2021/01/15 12:49:43;;;;;;;10.43;5.07;;;5.30;92.80;;;;;;4953892;28;20895;-75
2021/01/15 12:52:10;;;;;;;8.35;5.00;;;5.30;92.80;;;;;;4971898;28;20213;-76
2021/01/15 12:54:37;;;;;;;8.73;5.28;;;5.30;92.70;;;;;;4972461;28;20206;-75
2021/01/15 12:57:03;;;;;;;10.70;6.28;;;5.30;92.70;;;;;;4973382;28;20229;-75